Time;durP1;ratioP1;P1;durP2;ratioP2;P2;SDS_P1;SDS_P2;PMS_P1;PMS_P2;Temp;Humidity;BMP_temperature;BMP_pressure;BME280_temperature;BME280_humidity;BME280_pressure;Samples;Min_cycle;Max_cycle;Signal;HPM_P1;HPM_P2
2022/08/06 00:00:20;;;;;;;6.77;1.43;;;;;;;10.79;85.37;102444.97;5091495;28;20042;-81
2022/08/06 00:02:45;;;;;;;6.23;1.50;;;;;;;10.74;85.94;102443.78;5092302;28;20024;-82
2022/08/06 00:05:10;;;;;;;5.00;1.53;;;;;;;10.73;85.48;102447.50;5092074;28;20059;-81
2022/08/06 00:07:36;;;;;;;5.33;1.27;;;;;;;10.71;85.90;102454.94;5092054;28;20024;-81
2022/08/06 00:10:03;;;;;;;4.20;1.20;;;;;;;10.73;86.14;102462.75;5091260;28;20039;-82
2022/08/06 00:12:32;;;;;;;8.43;1.43;;;;;;;10.69;86.54;102456.19;5092242;28;20381;-82
2022/08/06 00:14:58;;;;;;;5.25;1.70;;;;;;;10.68;86.23;102459.94;5091178;28;20059;-81
2022/08/06 00:17:24;;;;;;;5.60;1.35;;;;;;;10.61;85.73;102457.28;5092001;28;20048;-81
2022/08/06 00:19:52;;;;;;;9.77;1.60;;;;;;;10.55;86.54;102450.94;5091264;28;20027;-81
2022/08/06 00:22:18;;;;;;;6.85;1.55;;;;;;;10.53;86.31;102458.38;5092189;28;20364;-81
2022/08/06 00:24:43;;;;;;;3.83;1.73;;;;;;;10.52;86.48;102458.59;5091916;28;20035;-81
2022/08/06 00:27:08;;;;;;;3.53;1.65;;;;;;;10.42;86.65;102457.19;5091663;28;20103;-81
2022/08/06 00:29:34;;;;;;;9.00;2.17;;;;;;;10.34;87.05;102462.81;5091383;28;20024;-81
2022/08/06 00:31:59;;;;;;;4.50;1.80;;;;;;;10.29;87.48;102465.31;5090818;28;20095;-81
2022/08/06 00:34:24;;;;;;;6.50;1.60;;;;;;;10.27;87.42;102468.22;5091716;28;20360;-82
2022/08/06 00:36:49;;;;;;;5.20;1.80;;;;;;;10.21;87.55;102477.09;5091702;28;20024;-81
2022/08/06 00:39:15;;;;;;;8.10;2.10;;;;;;;10.20;88.07;102470.09;5091749;28;20028;-81
2022/08/06 00:41:40;;;;;;;7.32;2.30;;;;;;;10.15;88.85;102473.41;5090885;28;20106;-81
2022/08/06 00:44:05;;;;;;;10.10;2.00;;;;;;;10.12;89.13;102473.03;5091651;28;20024;-81
2022/08/06 00:46:31;;;;;;;7.57;2.17;;;;;;;10.14;89.62;102471.78;5091433;28;20031;-81
2022/08/06 00:48:56;;;;;;;11.93;2.13;;;;;;;10.12;89.47;102468.50;5091108;28;20023;-82
2022/08/06 00:51:23;;;;;;;5.53;2.20;;;;;;;10.14;89.70;102471.78;5072319;28;20126;-82
2022/08/06 00:53:49;;;;;;;7.20;2.05;;;;;;;10.14;89.77;102477.13;5091515;28;20115;-81
2022/08/06 00:56:15;;;;;;;10.60;2.10;;;;;;;10.11;89.97;102479.44;5091657;28;20027;-82
2022/08/06 00:58:40;;;;;;;10.63;1.90;;;;;;;10.05;89.89;102481.09;5090835;28;20028;-82
2022/08/06 01:01:05;;;;;;;9.53;2.30;;;;;;;10.07;90.15;102491.59;5090435;28;20031;-82
2022/08/06 01:03:31;;;;;;;7.07;2.28;;;;;;;10.00;90.89;102489.75;5091197;28;20016;-83
2022/08/06 01:05:56;;;;;;;7.20;2.40;;;;;;;10.02;89.92;102486.88;5091361;28;20119;-82
2022/08/06 01:08:21;;;;;;;4.83;2.30;;;;;;;10.01;90.10;102487.91;5090957;28;20028;-82
2022/08/06 01:10:47;;;;;;;6.27;2.17;;;;;;;10.02;89.92;102502.13;5093372;28;20028;-82
2022/08/06 01:13:12;;;;;;;7.67;2.20;;;;;;;9.97;90.23;102505.44;5091127;28;20487;-82
2022/08/06 01:15:41;;;;;;;6.87;2.30;;;;;;;9.93;90.08;102513.09;5091028;28;20270;-83
2022/08/06 01:23:38;;;;;;;6.05;1.80;;;;;;;9.92;91.40;102513.28;5321709;22;20415;-81
2022/08/06 01:26:31;;;;;;;7.97;2.20;;;;;;;9.91;91.08;102522.34;5070658;28;20145;-81
2022/08/06 01:29:04;;;;;;;5.25;2.30;;;;;;;9.90;90.97;102523.38;5050689;28;20021;-82
2022/08/06 01:31:36;;;;;;;7.13;2.30;;;;;;;9.89;92.09;102517.22;5049923;28;20052;-82
2022/08/06 01:34:09;;;;;;;4.87;2.10;;;;;;;9.85;91.89;102513.31;5050699;28;20061;-82
2022/08/06 01:36:42;;;;;;;5.20;2.00;;;;;;;9.82;91.28;102514.56;5050386;28;20337;-82
2022/08/06 01:39:11;;;;;;;9.25;2.22;;;;;;;9.74;91.52;102512.09;5050528;28;20472;-82
2022/08/06 01:41:43;;;;;;;7.82;2.15;;;;;;;9.74;92.69;102513.97;5049941;28;20017;-81
2022/08/06 01:44:13;;;;;;;8.70;2.30;;;;;;;9.70;92.56;102521.59;5050764;28;20021;-82
2022/08/06 01:46:43;;;;;;;8.60;2.17;;;;;;;9.73;92.38;102517.69;5050517;28;20021;-82
2022/08/06 01:49:11;;;;;;;5.75;1.85;;;;;;;9.70;92.26;102508.19;5050284;28;20563;-82
2022/08/06 01:51:39;;;;;;;9.32;2.63;;;;;;;9.73;92.44;102521.16;5049791;28;20047;-82
2022/08/06 01:54:07;;;;;;;7.68;2.42;;;;;;;9.66;92.86;102509.69;5050567;28;20060;-83
2022/08/06 01:56:36;;;;;;;6.15;2.15;;;;;;;9.70;92.47;102521.59;5050343;28;20074;-82
2022/08/06 01:59:05;;;;;;;5.53;2.10;;;;;;;9.71;92.33;102520.56;5050148;28;20167;-82
2022/08/06 02:01:34;;;;;;;8.47;2.70;;;;;;;9.66;93.26;102520.38;5050213;28;20268;-82
2022/08/06 02:04:02;;;;;;;3.97;2.13;;;;;;;9.64;93.01;102522.44;5050113;28;20381;-82
2022/08/06 02:06:34;;;;;;;5.60;2.05;;;;;;;9.66;93.14;102525.75;5050375;28;20085;-83
2022/08/06 02:09:03;;;;;;;7.30;2.13;;;;;;;9.65;92.69;102526.75;5050198;28;20162;-82
2022/08/06 02:11:32;;;;;;;10.50;2.45;;;;;;;9.62;92.67;102521.81;5049850;28;20028;-83
2022/08/06 02:13:59;;;;;;;4.47;2.45;;;;;;;9.57;94.01;102524.31;5050135;28;20391;-83
2022/08/06 02:16:28;;;;;;;5.82;2.17;;;;;;;9.53;93.86;102514.00;5049623;28;20037;-83
2022/08/06 02:18:55;;;;;;;7.10;2.20;;;;;;;9.46;92.52;102523.09;5049990;28;20242;-83
2022/08/06 02:21:22;;;;;;;5.32;2.22;;;;;;;9.46;93.63;102528.44;5049721;28;20045;-83
2022/08/06 02:23:50;;;;;;;7.47;2.30;;;;;;;9.40;93.88;102525.56;5050019;28;20029;-83
2022/08/06 02:26:17;;;;;;;8.40;2.17;;;;;;;9.43;93.10;102529.69;5050113;28;20373;-83
2022/08/06 02:28:43;;;;;;;6.70;2.00;;;;;;;9.42;93.56;102533.38;5049774;28;20086;-83
2022/08/06 02:31:09;;;;;;;4.78;2.10;;;;;;;9.40;93.73;102519.41;5049283;28;20439;-82
2022/08/06 02:33:35;;;;;;;7.47;2.10;;;;;;;9.42;93.71;102530.72;5050073;28;20036;-82
2022/08/06 02:36:19;;;;;;;6.13;2.08;;;;;;;9.28;92.68;102521.06;5049875;28;20027;-82
2022/08/06 02:38:46;;;;;;;11.03;2.50;;;;;;;9.20;93.31;102516.75;5053081;28;20113;-82
2022/08/06 02:41:21;;;;;;;5.38;2.10;;;;;;;9.21;94.64;102526.41;5053021;28;20082;-82
2022/08/06 02:44:10;;;;;;;4.90;1.98;;;;;;;9.15;94.20;102525.38;5053386;28;20523;-82
2022/08/06 02:47:05;;;;;;;6.50;2.15;;;;;;;9.17;93.63;102531.34;5053789;28;20024;-82
2022/08/06 02:49:37;;;;;;;4.15;2.20;;;;;;;9.18;94.46;102533.00;5052132;28;20022;-81
2022/08/06 02:52:15;;;;;;;8.82;2.20;;;;;;;9.18;94.61;102527.63;5052269;28;20021;-82
2022/08/06 02:54:47;;;;;;;8.55;2.05;;;;;;;9.21;94.36;102523.75;5035613;28;20757;-82
2022/08/06 02:57:23;;;;;;;3.20;1.80;;;;;;;9.19;94.07;102525.81;5052942;28;20550;-82
2022/08/06 02:59:53;;;;;;;4.90;1.80;;;;;;;9.15;93.98;102530.72;5052797;28;20052;-82
2022/08/06 03:02:23;;;;;;;5.93;2.00;;;;;;;9.13;94.08;102524.75;5053078;28;20029;-82
2022/08/06 03:04:50;;;;;;;8.40;2.40;;;;;;;9.06;94.08;102529.28;5053121;28;20279;-82
2022/08/06 03:07:17;;;;;;;14.43;2.75;;;;;;;9.02;95.04;102528.06;5052956;28;20506;-81
2022/08/06 03:09:46;;;;;;;8.57;2.25;;;;;;;9.05;95.34;102536.47;5051532;28;20039;-82
2022/08/06 03:12:14;;;;;;;5.80;2.28;;;;;;;9.03;95.67;102532.38;5049297;28;20036;-82
2022/08/06 03:14:41;;;;;;;4.97;1.75;;;;;;;9.04;95.22;102539.38;5053266;28;20028;-82
2022/08/06 03:17:10;;;;;;;4.63;2.20;;;;;;;8.94;95.37;102527.25;5052599;28;20431;-82
2022/08/06 03:19:37;;;;;;;6.28;2.00;;;;;;;8.93;95.26;102532.78;5053086;28;20068;-82
2022/08/06 03:22:04;;;;;;;3.40;1.88;;;;;;;8.90;95.98;102533.19;5052427;28;20037;-82
2022/08/06 03:24:31;;;;;;;5.38;2.13;;;;;;;8.76;96.64;102511.78;5052685;28;20120;-82
2022/08/06 03:27:01;;;;;;;3.13;1.73;;;;;;;8.86;96.36;102527.44;5035146;28;20025;-82
2022/08/06 03:29:27;;;;;;;3.50;1.80;;;;;;;8.93;96.72;102538.97;5052423;28;20290;-81
2022/08/06 03:31:53;;;;;;;9.93;2.30;;;;;;;8.87;96.47;102536.25;5052013;28;20112;-82
2022/08/06 03:34:19;;;;;;;5.50;1.80;;;;;;;8.91;96.31;102542.84;5052624;28;20063;-81
2022/08/06 03:36:45;;;;;;;4.10;1.92;;;;;;;8.86;96.15;102539.97;5052527;28;20029;-81
2022/08/06 03:39:13;;;;;;;8.23;2.08;;;;;;;8.83;95.38;102548.41;5052292;28;20021;-81
2022/08/06 03:41:40;;;;;;;8.40;2.13;;;;;;;8.76;95.83;102540.38;5051919;28;20063;-81
2022/08/06 03:44:06;;;;;;;9.43;2.25;;;;;;;8.72;96.42;102552.50;5051651;28;20029;-81
2022/08/06 03:46:42;;;;;;;6.80;2.33;;;;;;;8.67;96.24;102553.13;5052497;28;20549;-82
2022/08/06 03:49:14;;;;;;;10.93;2.28;;;;;;;8.64;97.18;102548.19;5052159;28;20033;-82
2022/08/06 03:51:40;;;;;;;8.88;2.38;;;;;;;8.64;96.91;102546.31;5052041;28;20068;-82
2022/08/06 03:54:07;;;;;;;5.43;2.15;;;;;;;8.67;97.02;102552.28;5052054;28;20029;-82
2022/08/06 03:56:36;;;;;;;8.63;2.25;;;;;;;8.63;97.81;102559.91;5051929;28;20063;-83
2022/08/06 03:59:04;;;;;;;7.38;1.83;;;;;;;8.66;96.68;102567.50;5052007;28;20498;-82
2022/08/06 04:01:33;;;;;;;7.93;2.20;;;;;;;8.68;97.43;102561.94;5051829;28;20033;-83
2022/08/06 04:04:00;;;;;;;4.38;2.20;;;;;;;8.62;97.32;102566.25;5051903;28;20025;-82
2022/08/06 04:06:27;;;;;;;5.82;2.33;;;;;;;8.69;97.43;102566.28;5052302;28;20368;-83
2022/08/06 04:08:56;;;;;;;9.90;2.10;;;;;;;8.66;96.57;102572.00;5051793;28;20023;-83
2022/08/06 04:11:23;;;;;;;5.43;2.00;;;;;;;8.62;96.67;102572.41;5051638;28;20325;-82
2022/08/06 04:13:49;;;;;;;7.78;1.95;;;;;;;8.61;97.55;102575.31;5051589;28;20066;-83
2022/08/06 04:16:16;;;;;;;7.43;2.45;;;;;;;8.65;97.69;102573.88;5051727;28;20028;-82
2022/08/06 04:18:43;;;;;;;3.47;2.00;;;;;;;8.68;97.36;102575.31;5051582;28;20017;-83
2022/08/06 04:21:14;;;;;;;5.00;1.98;;;;;;;8.68;96.91;102580.66;5050951;28;20021;-83
2022/08/06 04:23:39;;;;;;;3.00;1.60;;;;;;;8.68;96.85;102580.66;5033622;28;20029;-82
2022/08/06 04:26:07;;;;;;;5.50;1.80;;;;;;;8.67;96.75;102585.19;5051699;28;20021;-82
2022/08/06 04:28:39;;;;;;;3.75;1.90;;;;;;;8.72;96.47;102589.94;5051573;28;20020;-82
2022/08/06 04:31:07;;;;;;;5.95;2.28;;;;;;;8.76;95.79;102593.84;5051073;28;20111;-82
2022/08/06 04:33:35;;;;;;;7.68;2.25;;;;;;;8.79;95.91;102593.41;5051059;28;20024;-82
2022/08/06 04:36:05;;;;;;;5.13;2.10;;;;;;;8.78;96.76;102597.13;5051390;28;20503;-83
2022/08/06 04:38:31;;;;;;;6.47;2.40;;;;;;;8.75;97.03;102579.66;5051364;28;20039;-83
2022/08/06 04:40:57;;;;;;;4.88;2.05;;;;;;;8.82;97.27;102589.53;5050797;28;20029;-83
2022/08/06 04:43:22;;;;;;;4.80;2.27;;;;;;;8.83;96.83;102593.88;5051356;28;20047;-83
2022/08/06 04:45:48;;;;;;;6.10;2.33;;;;;;;8.84;96.90;102595.50;5051074;28;20028;-82
2022/08/06 04:48:15;;;;;;;7.87;2.33;;;;;;;8.86;96.87;102594.28;5051346;28;20029;-82
2022/08/06 04:50:40;;;;;;;5.13;2.57;;;;;;;8.89;97.42;102599.22;5050281;28;20334;-83
2022/08/06 04:53:08;;;;;;;3.72;2.42;;;;;;;8.91;96.76;102597.16;5050984;28;20061;-83
2022/08/06 04:55:34;;;;;;;6.82;2.80;;;;;;;8.98;97.29;102599.00;5051275;28;20029;-83
2022/08/06 04:58:00;;;;;;;7.97;3.30;;;;;;;9.05;98.09;102607.88;5051056;28;20025;-83
2022/08/06 05:00:26;;;;;;;11.95;3.30;;;;;;;9.09;98.60;102609.13;5050163;28;20063;-83
2022/08/06 05:02:51;;;;;;;7.73;3.20;;;;;;;9.19;97.86;102614.88;5051000;28;20421;-83
2022/08/06 05:05:20;;;;;;;7.17;3.03;;;;;;;9.26;98.25;102606.03;5050706;28;20029;-83
2022/08/06 05:07:47;;;;;;;8.07;2.90;;;;;;;9.31;98.58;102614.28;5051122;28;20029;-83
2022/08/06 05:10:13;;;;;;;11.38;3.25;;;;;;;9.65;98.56;102612.41;5050160;28;20476;-83
2022/08/06 05:12:43;;;;;;;8.00;3.20;;;;;;;10.36;96.13;102616.16;5049075;28;20082;-82
2022/08/06 05:15:34;;;;;;;8.38;3.22;;;;;;;10.82;93.52;102625.03;5050658;28;20025;-83
2022/08/06 05:18:23;;;;;;;6.10;3.00;;;;;;;11.71;90.55;102624.16;5050938;28;20036;-83
2022/08/06 05:20:51;;;;;;;6.10;3.10;;;;;;;12.70;86.61;102633.16;5050335;28;20032;-83
2022/08/06 05:23:39;;;;;;;11.68;3.30;;;;;;;13.62;83.72;102633.84;5050614;28;20029;-83
2022/08/06 05:26:06;;;;;;;8.85;3.10;;;;;;;14.42;78.14;102633.41;5050132;28;20035;-83
2022/08/06 05:28:32;;;;;;;10.05;2.80;;;;;;;15.02;75.13;102642.06;5050952;28;20017;-83
2022/08/06 05:30:57;;;;;;;8.67;2.90;;;;;;;15.51;74.17;102638.78;5031733;28;20029;-83
2022/08/06 05:33:24;;;;;;;12.47;3.30;;;;;;;15.95;71.26;102643.50;5050372;28;20025;-83
2022/08/06 05:35:49;;;;;;;9.93;2.92;;;;;;;16.28;69.64;102652.56;5050209;28;20056;-83
2022/08/06 05:38:15;;;;;;;6.07;2.47;;;;;;;16.46;67.32;102648.72;5050638;28;20527;-83
2022/08/06 05:40:40;;;;;;;6.73;2.40;;;;;;;16.46;67.68;102656.84;5049982;28;20389;-83
2022/08/06 05:43:05;;;;;;;8.23;2.57;;;;;;;16.30;68.82;102656.66;5050503;28;20119;-83
2022/08/06 05:45:31;;;;;;;6.60;2.57;;;;;;;16.02;68.99;102652.25;5050102;28;20025;-83
2022/08/06 05:48:00;;;;;;;8.90;2.67;;;;;;;15.64;71.45;102649.25;5050709;28;20059;-83
2022/08/06 05:50:30;;;;;;;8.82;2.95;;;;;;;15.21;72.13;102653.47;5049729;28;20652;-83
2022/08/06 05:53:11;;;;;;;9.97;3.10;;;;;;;14.88;74.23;102663.97;5032488;28;20021;-83
2022/08/06 05:55:45;;;;;;;6.63;2.63;;;;;;;14.47;75.58;102655.06;5050080;28;20802;-83
2022/08/06 05:58:38;;;;;;;9.18;2.75;;;;;;;14.17;76.26;102647.97;5050295;28;20480;-83
2022/08/06 06:01:07;;;;;;;8.98;3.13;;;;;;;13.89;78.44;102657.63;5049841;28;20075;-83
2022/08/06 06:03:33;;;;;;;10.80;3.22;;;;;;;13.69;79.87;102658.81;5050406;28;20025;-83
2022/08/06 06:06:00;;;;;;;8.52;3.30;;;;;;;13.50;79.84;102654.59;5050281;28;20051;-83
2022/08/06 06:08:26;;;;;;;5.75;3.03;;;;;;;13.42;81.31;102663.84;5050491;28;20040;-83
2022/08/06 06:10:52;;;;;;;8.20;3.65;;;;;;;13.36;82.71;102662.84;5049765;28;20052;-83
2022/08/06 06:13:20;;;;;;;6.97;3.40;;;;;;;13.36;83.37;102654.75;5052957;28;20477;-83
2022/08/06 06:16:05;;;;;;;5.88;3.17;;;;;;;13.41;83.48;102668.38;5053779;28;20460;-83
2022/08/06 06:18:36;;;;;;;10.82;3.70;;;;;;;13.40;83.53;102663.22;5054338;28;20029;-83
2022/08/06 06:21:17;;;;;;;8.77;4.00;;;;;;;13.47;84.77;102663.94;5053559;28;20124;-83
2022/08/06 06:23:55;;;;;;;11.00;4.05;;;;;;;13.51;84.36;102659.72;5053708;28;20040;-83
2022/08/06 06:26:32;;;;;;;12.98;4.13;;;;;;;13.60;85.39;102660.19;5053761;28;20021;-83
2022/08/06 06:29:30;;;;;;;9.73;3.70;;;;;;;13.66;84.80;102664.66;5054076;28;20032;-83
2022/08/06 06:32:17;;;;;;;9.75;4.10;;;;;;;13.77;85.21;102666.53;5052872;28;20029;-83
2022/08/06 06:34:59;;;;;;;9.95;4.05;;;;;;;13.89;86.20;102673.78;5053437;28;20057;-83
2022/08/06 06:37:37;;;;;;;8.57;4.07;;;;;;;13.98;86.50;102672.38;5053499;28;20468;-83
2022/08/06 06:40:20;;;;;;;10.37;3.97;;;;;;;14.16;85.79;102665.22;5053456;28;20331;-83
2022/08/06 06:43:08;;;;;;;8.38;3.58;;;;;;;14.35;85.01;102674.78;5053644;28;20029;-83
2022/08/06 06:45:42;;;;;;;10.90;3.30;;;;;;;14.53;84.95;102679.19;5053967;28;20447;-83
2022/08/06 06:48:17;;;;;;;6.95;3.53;;;;;;;14.72;84.09;102681.72;5053629;28;20207;-83
2022/08/06 06:50:46;;;;;;;7.93;3.05;;;;;;;14.84;82.42;102684.38;5052954;28;20029;-83
2022/08/06 06:53:14;;;;;;;9.55;2.75;;;;;;;14.98;82.57;102690.31;5053371;28;20068;-83
2022/08/06 06:55:52;;;;;;;8.43;2.85;;;;;;;15.13;80.30;102682.50;5053192;28;20155;-83
2022/08/06 06:58:37;;;;;;;6.75;2.50;;;;;;;15.25;80.06;102685.13;5053217;28;20031;-83
2022/08/06 07:01:08;;;;;;;6.45;2.45;;;;;;;15.42;78.38;102687.00;5052550;28;20025;-83
2022/08/06 07:03:38;;;;;;;8.73;2.50;;;;;;;15.59;78.34;102690.53;5051948;28;20064;-83
2022/08/06 07:06:05;;;;;;;6.93;1.93;;;;;;;15.77;76.05;102683.22;5053251;28;20283;-83
2022/08/06 07:08:34;;;;;;;3.88;2.20;;;;;;;15.92;75.63;102682.69;5053403;28;20025;-83
2022/08/06 07:11:01;;;;;;;11.43;2.15;;;;;;;15.97;74.18;102681.91;5051203;28;20076;-83
2022/08/06 07:13:30;;;;;;;7.55;2.50;;;;;;;16.03;74.18;102687.16;5051013;28;20029;-83
2022/08/06 07:15:56;;;;;;;3.78;1.80;;;;;;;16.16;73.42;102691.38;5052921;28;20146;-83
2022/08/06 07:18:26;;;;;;;5.03;2.17;;;;;;;16.28;71.26;102699.38;5053339;28;20239;-83
2022/08/06 07:20:51;;;;;;;6.72;1.73;;;;;;;16.37;70.90;102699.75;5052437;28;20106;-83
2022/08/06 07:23:18;;;;;;;6.30;1.90;;;;;;;16.42;70.94;102702.53;5052242;28;20721;-83
2022/08/06 07:25:46;;;;;;;8.10;1.80;;;;;;;16.55;69.90;102706.72;5052943;28;20024;-83
2022/08/06 07:28:14;;;;;;;4.95;1.63;;;;;;;16.61;68.05;102708.44;5052792;28;20096;-83
2022/08/06 07:30:43;;;;;;;4.80;1.65;;;;;;;16.61;68.41;102707.63;5052314;28;20376;-84
2022/08/06 07:33:10;;;;;;;6.88;1.70;;;;;;;16.68;68.72;102710.13;5052232;28;20021;-83
2022/08/06 07:35:39;;;;;;;10.85;1.83;;;;;;;16.73;68.87;102707.47;5052825;28;20039;-83
2022/08/06 07:38:08;;;;;;;10.15;2.03;;;;;;;16.80;67.48;102710.81;5052667;28;20112;-83
2022/08/06 07:40:40;;;;;;;3.88;1.33;;;;;;;16.93;68.03;102715.81;5052131;28;20025;-83
2022/08/06 07:43:13;;;;;;;5.05;1.55;;;;;;;17.09;67.07;102716.81;5052268;28;20053;-83
2022/08/06 07:46:31;;;;;;;4.53;1.07;;;;;;;17.23;64.90;102719.09;5147492;22;20063;-82
2022/08/06 07:49:01;;;;;;;2.33;0.80;;;;;;;17.17;62.99;102714.72;5072538;28;20279;-82
2022/08/06 07:51:30;;;;;;;5.38;0.90;;;;;;;17.24;62.90;102718.03;5071680;28;20040;-82
2022/08/06 07:53:56;;;;;;;4.53;1.00;;;;;;;17.29;62.95;102709.97;5072215;28;20020;-82
2022/08/06 07:56:21;;;;;;;4.63;0.80;;;;;;;17.43;62.79;102721.19;5072349;28;20388;-82
2022/08/06 07:58:48;;;;;;;3.83;1.00;;;;;;;17.50;62.38;102729.09;5071908;28;20020;-82
2022/08/06 08:01:14;;;;;;;5.10;1.27;;;;;;;17.60;61.90;102722.94;5071545;28;20446;-82
2022/08/06 08:06:27;;;;;;;5.82;1.00;;;;;;;17.82;59.88;102728.25;5072253;28;20498;-82
2022/08/06 08:08:58;;;;;;;4.35;1.02;;;;;;;17.83;60.83;102729.88;5071989;28;20029;-82
2022/08/06 08:11:25;;;;;;;5.93;0.88;;;;;;;17.94;61.44;102726.16;5071659;28;20035;-82
2022/08/06 08:13:54;;;;;;;3.28;1.00;;;;;;;18.18;61.25;102733.91;5071762;28;20052;-82
2022/08/06 08:16:20;;;;;;;3.85;1.00;;;;;;;18.23;59.27;102727.69;5071814;28;20025;-82
2022/08/06 08:18:46;;;;;;;2.97;0.80;;;;;;;17.95;58.91;102722.38;5071706;28;20352;-82
2022/08/06 08:21:13;;;;;;;5.30;0.90;;;;;;;17.89;60.17;102726.13;5071455;28;20029;-82
2022/08/06 08:23:40;;;;;;;8.00;1.00;;;;;;;18.05;60.58;102737.13;5071650;28;20040;-82
2022/08/06 08:26:06;;;;;;;2.88;0.88;;;;;;;18.27;58.12;102737.75;5071559;28;20402;-82
2022/08/06 08:28:31;;;;;;;2.58;0.70;;;;;;;18.41;56.84;102729.16;5071577;28;20115;-82
2022/08/06 08:31:05;;;;;;;3.13;0.70;;;;;;;18.53;56.85;102726.22;5070761;28;20029;-82
2022/08/06 08:33:31;;;;;;;1.95;0.82;;;;;;;18.38;55.85;102718.81;5071044;28;20028;-83
2022/08/06 08:35:57;;;;;;;5.70;1.10;;;;;;;18.50;55.12;102727.56;5070756;28;20035;-82
2022/08/06 08:38:22;;;;;;;4.03;0.80;;;;;;;18.80;54.96;102730.63;5071475;28;20278;-82
2022/08/06 08:40:53;;;;;;;2.77;0.80;;;;;;;19.27;54.17;102729.66;5070823;28;20522;-82
2022/08/06 08:43:23;;;;;;;3.90;0.93;;;;;;;19.56;52.59;102725.56;5071336;28;20029;-82
2022/08/06 08:45:50;;;;;;;2.00;0.77;;;;;;;19.83;51.56;102731.53;5071164;28;20078;-83
2022/08/06 08:48:22;;;;;;;2.42;0.80;;;;;;;20.20;51.31;102729.56;5071560;28;20022;-83
2022/08/06 08:50:49;;;;;;;2.58;1.10;;;;;;;20.19;49.87;102724.41;5070715;28;20029;-83
2022/08/06 08:53:27;;;;;;;2.83;0.80;;;;;;;20.32;49.98;102737.41;5071018;28;20123;-83
2022/08/06 08:55:52;;;;;;;2.95;0.90;;;;;;;20.55;47.65;102733.22;5070966;28;20494;-83
2022/08/06 08:58:18;;;;;;;2.43;0.80;;;;;;;20.65;47.28;102734.28;5071572;28;20032;-83
2022/08/06 09:00:44;;;;;;;3.08;0.70;;;;;;;20.79;47.40;102737.25;5052533;28;20052;-83
2022/08/06 09:03:11;;;;;;;2.33;0.87;;;;;;;20.68;46.82;102734.53;5070715;28;20074;-81
2022/08/06 09:05:36;;;;;;;2.00;0.90;;;;;;;20.09;46.31;102745.09;5071170;28;20021;-83
2022/08/06 09:08:03;;;;;;;2.55;0.90;;;;;;;19.68;48.67;102742.44;5070872;28;20047;-82
2022/08/06 09:10:29;;;;;;;3.92;0.80;;;;;;;19.62;47.77;102746.25;5070376;28;20388;-82
2022/08/06 09:12:55;;;;;;;2.00;0.60;;;;;;;19.60;46.80;102743.81;5069424;28;20025;-82
2022/08/06 09:15:20;;;;;;;1.70;0.80;;;;;;;19.74;47.81;102737.81;5070302;28;20032;-83
2022/08/06 09:17:47;;;;;;;3.60;0.90;;;;;;;19.99;46.50;102745.13;5070931;28;20029;-83
2022/08/06 09:20:12;;;;;;;1.95;0.75;;;;;;;20.15;44.32;102745.09;5070406;28;20025;-83
2022/08/06 09:22:38;;;;;;;2.85;0.70;;;;;;;20.40;43.26;102731.41;5070801;28;20020;-83
2022/08/06 09:25:04;;;;;;;2.47;0.97;;;;;;;20.73;44.59;102742.69;5070370;28;20406;-83
2022/08/06 09:27:35;;;;;;;3.80;1.00;;;;;;;20.80;45.35;102741.59;5070813;28;20021;-83
2022/08/06 09:30:05;;;;;;;2.97;0.90;;;;;;;20.95;43.36;102740.66;5069818;28;20911;-82
2022/08/06 09:32:45;;;;;;;2.65;0.80;;;;;;;21.02;42.89;102747.44;5070385;28;20028;-82
2022/08/06 09:35:22;;;;;;;2.70;0.80;;;;;;;21.11;42.47;102741.38;5070424;28;20035;-83
2022/08/06 09:38:00;;;;;;;2.35;1.02;;;;;;;21.30;42.75;102739.63;5052677;28;20051;-84
2022/08/06 09:40:25;;;;;;;1.98;0.80;;;;;;;21.67;43.28;102742.06;5070158;28;20056;-83
2022/08/06 09:42:52;;;;;;;2.70;1.07;;;;;;;21.99;41.70;102749.66;5070730;28;20049;-82
2022/08/06 09:45:19;;;;;;;3.58;0.90;;;;;;;22.41;42.70;102746.44;5069941;28;20105;-82
2022/08/06 09:47:46;;;;;;;2.92;0.90;;;;;;;22.95;42.16;102750.63;5074583;28;20549;-83
2022/08/06 09:50:12;;;;;;;3.00;1.00;;;;;;;23.09;41.25;102747.97;5074087;28;20048;-83
2022/08/06 09:52:38;;;;;;;3.95;0.93;;;;;;;22.71;39.28;102755.38;5074460;28;20035;-83
2022/08/06 09:55:04;;;;;;;3.13;0.90;;;;;;;22.17;40.61;102750.81;5074194;28;20025;-82
2022/08/06 09:57:43;;;;;;;5.40;0.75;;;;;;;21.76;42.51;102753.97;5074708;28;20036;-83
2022/08/06 10:00:10;;;;;;;1.97;0.80;;;;;;;21.42;42.54;102758.34;5056002;28;20342;-82
2022/08/06 10:02:36;;;;;;;2.43;1.10;;;;;;;21.37;42.72;102749.34;5074089;28;20289;-83
2022/08/06 10:05:13;;;;;;;4.25;0.88;;;;;;;21.69;44.05;102754.31;5073966;28;20402;-82
2022/08/06 10:07:39;;;;;;;2.17;0.85;;;;;;;21.84;40.88;102761.53;5074150;28;20035;-82
2022/08/06 10:10:05;;;;;;;2.47;0.90;;;;;;;21.84;41.89;102752.53;5055528;28;20104;-83
2022/08/06 10:12:32;;;;;;;1.97;1.07;;;;;;;22.10;41.95;102747.59;5074191;28;20283;-83
2022/08/06 10:14:58;;;;;;;3.92;0.70;;;;;;;22.26;40.54;102752.91;5073753;28;20531;-83
2022/08/06 10:17:25;;;;;;;1.30;0.90;;;;;;;22.50;40.68;102748.25;5074142;28;20063;-82
2022/08/06 10:20:13;;;;;;;2.25;0.85;;;;;;;22.78;40.11;102744.88;5073405;28;20027;-82
2022/08/06 10:22:54;;;;;;;1.58;0.82;;;;;;;22.72;38.93;102744.16;5073620;28;20542;-82
2022/08/06 10:25:22;;;;;;;3.15;0.70;;;;;;;22.75;38.21;102732.63;5073583;28;20020;-82
2022/08/06 10:27:49;;;;;;;1.85;0.77;;;;;;;22.62;37.58;102739.63;5073845;28;20032;-82
2022/08/06 10:30:16;;;;;;;1.77;0.77;;;;;;;22.24;38.26;102743.09;5073121;28;20020;-82
2022/08/06 10:32:55;;;;;;;2.58;0.75;;;;;;;21.71;37.69;102746.66;5073476;28;20094;-83
2022/08/06 10:35:23;;;;;;;3.03;1.00;;;;;;;21.43;38.68;102731.88;5073638;28;20383;-83
2022/08/06 10:37:53;;;;;;;2.47;0.80;;;;;;;21.32;40.19;102736.59;5073590;28;20761;-82
2022/08/06 10:40:20;;;;;;;3.30;1.00;;;;;;;21.47;40.00;102728.28;5073092;28;20039;-82
2022/08/06 10:42:46;;;;;;;2.63;0.80;;;;;;;21.68;38.77;102728.13;5073588;28;20041;-83
2022/08/06 10:45:14;;;;;;;1.55;0.80;;;;;;;21.73;39.19;102729.97;5073414;28;20052;-83
2022/08/06 10:47:42;;;;;;;4.23;1.00;;;;;;;22.10;39.30;102728.50;5073659;28;20441;-82
2022/08/06 10:50:10;;;;;;;3.47;1.07;;;;;;;22.50;38.58;102720.94;5072779;28;20305;-83
2022/08/06 10:52:35;;;;;;;2.38;0.88;;;;;;;22.69;38.47;102710.03;5073400;28;20021;-83
2022/08/06 10:55:04;;;;;;;2.88;1.00;;;;;;;22.91;37.93;102713.28;5073152;28;20086;-82
2022/08/06 10:57:31;;;;;;;1.92;0.70;;;;;;;23.04;37.97;102717.97;5072911;28;20396;-83
2022/08/06 10:59:58;;;;;;;4.85;1.20;;;;;;;23.01;36.38;102715.81;5073083;28;20078;-82
2022/08/06 11:05:02;;;;;;;1.98;0.82;;;;;;;22.96;36.19;102714.00;6026968;22;20118;-83
2022/08/06 11:07:46;;;;;;;1.23;0.60;;;;;;;23.08;35.71;102710.00;5053125;28;20072;-82
2022/08/06 11:10:30;;;;;;;5.00;1.10;;;;;;;23.07;37.47;102706.44;5052784;28;20337;-82
2022/08/06 11:13:13;;;;;;;1.52;0.82;;;;;;;23.16;36.46;102712.03;5053157;28;20033;-82
2022/08/06 11:15:40;;;;;;;2.67;1.00;;;;;;;23.35;36.85;102711.22;5066900;28;20036;-82
2022/08/06 11:18:08;;;;;;;3.55;1.02;;;;;;;23.53;36.54;102713.09;5072581;28;20033;-82
2022/08/06 11:20:33;;;;;;;5.07;0.90;;;;;;;23.51;35.28;102707.09;5072560;28;20107;-82
2022/08/06 11:23:19;;;;;;;1.13;0.90;;;;;;;23.54;35.59;102709.25;5072873;28;20104;-82
2022/08/06 11:25:47;;;;;;;4.22;0.90;;;;;;;23.19;34.06;102711.47;5072486;28;20090;-82
2022/08/06 11:28:14;;;;;;;1.33;0.75;;;;;;;22.75;34.94;102705.31;5072985;28;20470;-82
2022/08/06 11:30:43;;;;;;;2.15;0.80;;;;;;;22.90;36.03;102708.91;5071935;28;20048;-82
2022/08/06 11:33:10;;;;;;;2.15;0.80;;;;;;;23.11;35.33;102704.75;5072878;28;20024;-82
2022/08/06 11:35:35;;;;;;;3.47;0.82;;;;;;;23.14;34.72;102701.44;5072770;28;20035;-82
2022/08/06 11:38:05;;;;;;;1.80;0.83;;;;;;;22.99;34.82;102701.69;5072754;28;20029;-82
2022/08/06 11:40:56;;;;;;;3.50;1.10;;;;;;;23.18;35.04;102700.84;5072274;28;20059;-83
2022/08/06 11:43:40;;;;;;;1.50;1.00;;;;;;;23.33;35.36;102691.56;5072380;28;20024;-81
2022/08/06 11:46:33;;;;;;;2.00;0.80;;;;;;;23.47;35.67;102692.41;5072468;28;20033;-83
2022/08/06 11:49:04;;;;;;;1.73;0.90;;;;;;;23.78;34.69;102693.75;5072777;28;20287;-82